Time;durP1;ratioP1;P1;durP2;ratioP2;P2;SDS_P1;SDS_P2;PMS_P1;PMS_P2;Temp;Humidity;BMP_temperature;BMP_pressure;BME280_temperature;BME280_humidity;BME280_pressure;Samples;Min_cycle;Max_cycle;Signal;HPM_P1;HPM_P2
2021/11/03 00:01:42;;;;;;;70.63;46.38;;;358.50;2329.60;;;;;;5032833;28;20489;-59
2021/11/03 00:04:09;;;;;;;70.32;50.17;;;333.70;2329.60;;;;;;5032537;28;20112;-59
2021/11/03 00:06:37;;;;;;;63.13;45.45;;;333.60;2329.60;;;;;;5032999;28;20029;-59
2021/11/03 00:09:04;;;;;;;55.08;41.63;;;333.70;2329.60;;;;;;5032957;28;20490;-58
2021/11/03 00:11:31;;;;;;;63.00;45.80;;;333.70;2329.60;;;;;;5032329;28;20049;-58
2021/11/03 00:13:57;;;;;;;58.10;44.63;;;333.70;2329.60;;;;;;5032492;28;20067;-59
2021/11/03 00:16:23;;;;;;;76.70;53.83;;;333.70;2329.60;;;;;;5064310;28;20053;-58
2021/11/03 00:18:49;;;;;;;63.88;44.95;;;358.40;2329.60;;;;;;5032370;28;20037;-59
2021/11/03 00:21:15;;;;;;;55.60;38.78;;;358.50;2329.60;;;;;;5032580;28;20031;-60
2021/11/03 00:23:41;;;;;;;59.63;41.88;;;333.70;2329.60;;;;;;5032412;28;20037;-58
2021/11/03 00:26:07;;;;;;;57.30;41.33;;;358.40;2329.60;;;;;;5032218;28;20029;-59
2021/11/03 00:28:33;;;;;;;65.57;49.28;;;333.70;2329.60;;;;;;5032416;28;20041;-58
2021/11/03 00:31:00;;;;;;;72.90;50.75;;;333.70;2329.60;;;;;;5031981;28;20498;-59
2021/11/03 00:33:29;;;;;;;72.35;47.65;;;333.50;2329.60;;;;;;5032474;28;20505;-59
2021/11/03 00:35:55;;;;;;;74.30;48.50;;;333.50;2329.60;;;;;;5032398;28;20022;-58
2021/11/03 00:38:22;;;;;;;75.63;50.30;;;333.70;2329.60;;;;;;5032397;28;20026;-58
2021/11/03 00:40:48;;;;;;;122.70;77.00;;;333.70;2329.60;;;;;;5032238;28;20060;-59
2021/11/03 00:43:14;;;;;;;88.18;54.30;;;333.60;2329.60;;;;;;5032379;28;20041;-60
2021/11/03 00:45:40;;;;;;;69.65;45.85;;;333.40;2329.60;;;;;;5031808;28;20033;-59
2021/11/03 00:48:06;;;;;;;75.22;46.72;;;333.50;2329.60;;;;;;5031891;28;20029;-59
2021/11/03 00:50:32;;;;;;;65.68;42.80;;;333.50;2329.60;;;;;;5032068;28;20376;-60
2021/11/03 00:52:58;;;;;;;86.32;54.55;;;333.70;2329.60;;;;;;5031825;28;20036;-59
2021/11/03 00:55:24;;;;;;;95.28;56.08;;;333.70;2329.60;;;;;;5031938;28;20018;-58
2021/11/03 00:57:49;;;;;;;67.18;42.90;;;333.60;2329.60;;;;;;5030379;28;20176;-59
2021/11/03 01:00:18;;;;;;;73.90;47.45;;;333.50;2329.60;;;;;;5031590;28;20132;-58
2021/11/03 01:02:44;;;;;;;74.40;47.20;;;333.60;2329.60;;;;;;5031869;28;20076;-60
2021/11/03 01:05:13;;;;;;;83.40;44.85;;;333.60;2329.60;;;;;;5031361;28;20037;-59
2021/11/03 01:07:41;;;;;;;66.75;43.05;;;333.50;2329.60;;;;;;5031776;28;20043;-59
2021/11/03 01:10:08;;;;;;;88.13;54.28;;;333.40;2329.60;;;;;;5031344;28;20030;-59
2021/11/03 01:12:34;;;;;;;61.88;42.88;;;333.30;2329.60;;;;;;5031634;28;20100;-59
2021/11/03 01:15:01;;;;;;;77.43;46.00;;;333.40;2329.60;;;;;;5031275;28;20555;-59
2021/11/03 01:17:26;;;;;;;67.10;41.22;;;333.50;2329.60;;;;;;5031216;28;20026;-58
2021/11/03 01:19:52;;;;;;;77.18;48.17;;;333.50;2329.60;;;;;;5031485;28;20031;-59
2021/11/03 01:22:18;;;;;;;67.97;42.70;;;333.70;2329.60;;;;;;5062298;28;20029;-59
2021/11/03 01:24:43;;;;;;;73.40;45.15;;;333.50;2329.60;;;;;;5031472;28;20547;-59
2021/11/03 01:27:09;;;;;;;85.25;49.65;;;333.50;2329.60;;;;;;5031043;28;20459;-58
2021/11/03 01:29:35;;;;;;;66.25;43.22;;;333.50;2329.60;;;;;;5031088;28;20060;-60
2021/11/03 01:32:01;;;;;;;61.78;41.50;;;358.60;2329.60;;;;;;5030940;28;20025;-59
2021/11/03 01:34:26;;;;;;;62.45;40.15;;;333.70;2329.60;;;;;;5030886;28;20033;-59
2021/11/03 01:36:52;;;;;;;69.50;42.70;;;333.70;2329.60;;;;;;5031243;28;20071;-59
2021/11/03 01:39:18;;;;;;;66.75;41.25;;;333.40;2329.60;;;;;;5031117;28;20383;-59
2021/11/03 01:41:43;;;;;;;69.03;44.17;;;333.50;2329.60;;;;;;5030975;28;20018;-59
2021/11/03 01:44:13;;;;;;;69.63;42.83;;;333.40;2329.60;;;;;;5030622;28;20491;-58
2021/11/03 01:46:55;;;;;;;63.03;39.30;;;333.50;2329.60;;;;;;5030589;28;20022;-59
2021/11/03 01:49:29;;;;;;;81.07;60.22;;;333.50;2329.60;;;;;;5030908;28;20022;-59
2021/11/03 01:52:07;;;;;;;85.90;55.97;;;333.50;2329.60;;;;;;5030770;28;20025;-59
2021/11/03 01:54:40;;;;;;;66.45;44.50;;;333.40;2329.60;;;;;;5030899;28;20021;-59
2021/11/03 01:57:09;;;;;;;64.28;45.42;;;333.40;2329.60;;;;;;5030854;28;20094;-59
2021/11/03 01:59:40;;;;;;;65.90;43.75;;;333.50;2329.60;;;;;;5030494;28;20121;-59
2021/11/03 02:02:07;;;;;;;57.00;34.97;;;333.50;2329.60;;;;;;5030337;28;20041;-58
2021/11/03 02:04:34;;;;;;;58.67;37.35;;;333.50;2329.60;;;;;;5030650;28;20127;-59
2021/11/03 02:07:04;;;;;;;57.65;35.97;;;333.40;2329.60;;;;;;5030328;28;20523;-59
2021/11/03 02:09:30;;;;;;;55.28;33.17;;;333.50;2329.60;;;;;;5030413;28;20021;-58
2021/11/03 02:11:56;;;;;;;57.33;38.35;;;333.50;2329.60;;;;;;5030349;28;20045;-58
2021/11/03 02:14:22;;;;;;;55.95;37.22;;;333.40;2329.60;;;;;;5030388;28;20064;-59
2021/11/03 02:16:52;;;;;;;64.70;39.42;;;333.50;2329.60;;;;;;5030266;28;20025;-59
2021/11/03 02:19:25;;;;;;;51.38;34.15;;;333.50;2329.60;;;;;;5061992;28;20438;-59
2021/11/03 02:21:57;;;;;;;54.75;34.75;;;333.60;2329.60;;;;;;5030333;28;20035;-59
2021/11/03 02:24:35;;;;;;;56.38;37.08;;;333.50;2329.60;;;;;;5030257;28;20145;-59
2021/11/03 02:27:01;;;;;;;57.67;34.78;;;333.50;2329.60;;;;;;5030220;28;20460;-58
2021/11/03 02:29:27;;;;;;;58.22;35.95;;;333.50;2329.60;;;;;;5029934;28;20032;-58
2021/11/03 02:31:57;;;;;;;60.80;37.45;;;333.50;2329.60;;;;;;5030096;28;20029;-59
2021/11/03 02:34:29;;;;;;;59.70;38.72;;;333.50;2329.60;;;;;;5029215;28;20040;-59
2021/11/03 02:36:56;;;;;;;63.80;38.53;;;333.60;2329.60;;;;;;5030226;28;20022;-59
2021/11/03 02:39:43;;;;;;;69.43;42.53;;;333.60;2329.60;;;;;;5030049;28;20487;-59
2021/11/03 02:42:10;;;;;;;69.30;39.50;;;333.40;2329.60;;;;;;5029885;28;20025;-58
2021/11/03 02:44:39;;;;;;;62.20;39.13;;;333.40;2329.60;;;;;;5029775;28;20132;-57
2021/11/03 02:47:05;;;;;;;62.05;39.90;;;333.20;2329.60;;;;;;5030061;28;20021;-59
2021/11/03 02:49:34;;;;;;;59.85;39.47;;;333.30;2329.60;;;;;;5029942;28;20529;-59
2021/11/03 02:52:00;;;;;;;61.50;40.05;;;333.40;2329.60;;;;;;5029760;28;20063;-60
2021/11/03 02:54:25;;;;;;;70.72;43.53;;;333.40;2329.60;;;;;;5030074;28;20251;-59
2021/11/03 02:56:53;;;;;;;68.82;45.40;;;333.40;2329.60;;;;;;5030001;28;20109;-59
2021/11/03 02:59:23;;;;;;;75.15;47.75;;;333.40;2329.60;;;;;;5029594;28;20040;-60
2021/11/03 03:01:53;;;;;;;73.47;45.47;;;333.30;2329.60;;;;;;5029789;28;20459;-59
2021/11/03 03:04:23;;;;;;;76.90;42.25;;;333.40;2329.60;;;;;;5029714;28;20045;-59
2021/11/03 03:06:50;;;;;;;82.13;54.40;;;333.40;2329.60;;;;;;5029655;28;20057;-58
2021/11/03 03:09:17;;;;;;;79.50;47.88;;;333.30;2329.60;;;;;;5029897;28;20472;-59
2021/11/03 03:11:46;;;;;;;70.35;45.15;;;333.20;2329.60;;;;;;5029804;28;20037;-59
2021/11/03 03:14:13;;;;;;;72.60;45.38;;;333.30;2329.60;;;;;;5029872;28;20029;-59
2021/11/03 03:16:40;;;;;;;70.55;44.03;;;333.30;2329.60;;;;;;5029458;28;20029;-59
2021/11/03 03:19:07;;;;;;;87.50;66.68;;;333.30;2329.60;;;;;;5029628;28;20034;-58
2021/11/03 03:21:33;;;;;;;72.18;45.35;;;333.30;2329.60;;;;;;5029692;28;20050;-59
2021/11/03 03:24:02;;;;;;;69.80;47.20;;;333.20;2329.60;;;;;;5029428;28;20033;-59
2021/11/03 03:26:28;;;;;;;69.28;41.45;;;333.30;2329.60;;;;;;5029509;28;20045;-59
2021/11/03 03:28:55;;;;;;;64.45;41.70;;;333.20;2329.60;;;;;;5029556;28;20025;-59
2021/11/03 03:31:22;;;;;;;73.55;40.90;;;333.20;2329.60;;;;;;5029742;28;20036;-59
2021/11/03 03:33:51;;;;;;;71.55;42.10;;;333.20;2329.60;;;;;;5029334;28;20036;-59
2021/11/03 03:36:18;;;;;;;68.55;42.70;;;333.20;2329.60;;;;;;5029344;28;20014;-59
2021/11/03 03:38:44;;;;;;;66.65;42.33;;;333.00;2329.60;;;;;;5029719;28;20025;-59
2021/11/03 03:41:11;;;;;;;62.78;37.60;;;333.10;2329.60;;;;;;5029659;28;20032;-59
2021/11/03 03:43:37;;;;;;;76.13;39.50;;;333.10;2329.60;;;;;;5029251;28;20128;-59
2021/11/03 03:46:03;;;;;;;96.63;41.25;;;332.90;2329.60;;;;;;5031980;28;20036;-59
2021/11/03 03:48:29;;;;;;;61.13;37.45;;;332.90;2329.60;;;;;;5032847;28;20041;-57
2021/11/03 03:50:55;;;;;;;72.32;40.58;;;333.00;2329.60;;;;;;5033029;28;20025;-58
2021/11/03 03:53:22;;;;;;;64.75;41.70;;;332.90;2329.60;;;;;;5032814;28;20071;-59
2021/11/03 03:55:49;;;;;;;75.90;44.90;;;332.90;2329.60;;;;;;5032962;28;20025;-59
2021/11/03 03:58:17;;;;;;;90.55;54.45;;;332.90;2329.60;;;;;;5033229;28;20029;-59
2021/11/03 04:00:43;;;;;;;83.13;48.53;;;332.90;2329.60;;;;;;5032895;28;20084;-59
2021/11/03 04:03:08;;;;;;;73.60;42.75;;;332.90;2329.60;;;;;;5032635;28;20090;-59
2021/11/03 04:05:34;;;;;;;78.03;44.20;;;333.00;2329.60;;;;;;5032808;28;20112;-60
2021/11/03 04:08:00;;;;;;;93.60;47.53;;;332.80;2329.60;;;;;;5032938;28;20104;-59
2021/11/03 04:10:26;;;;;;;123.15;53.70;;;332.90;2329.60;;;;;;5032865;28;20080;-58
2021/11/03 04:12:52;;;;;;;155.02;57.95;;;333.00;2329.60;;;;;;5032768;28;20078;-59
2021/11/03 04:15:18;;;;;;;101.88;52.67;;;333.10;2329.60;;;;;;5032709;28;20067;-60
2021/11/03 04:17:44;;;;;;;81.32;42.22;;;332.90;2329.60;;;;;;5032946;28;20483;-59
2021/11/03 04:20:12;;;;;;;81.85;45.92;;;332.90;2329.60;;;;;;5032568;28;20040;-59
2021/11/03 04:22:39;;;;;;;72.22;42.08;;;332.90;2329.60;;;;;;5033351;28;20036;-59
2021/11/03 04:25:08;;;;;;;84.32;46.53;;;332.80;2329.60;;;;;;5034001;28;20049;-64
2021/11/03 04:27:34;;;;;;;69.93;40.53;;;332.80;2329.60;;;;;;5033566;28;20030;-57
2021/11/03 04:30:00;;;;;;;67.82;40.53;;;332.90;2329.60;;;;;;5032175;28;20061;-57
2021/11/03 04:32:26;;;;;;;105.18;44.95;;;332.80;2329.60;;;;;;5032383;28;20081;-57
2021/11/03 04:34:52;;;;;;;79.00;41.67;;;332.80;2329.60;;;;;;5032364;28;20108;-57
2021/11/03 04:37:19;;;;;;;64.30;39.17;;;308.10;2304.00;;;;;;5028517;28;20467;-57
2021/11/03 04:39:45;;;;;;;76.60;46.38;;;332.80;2329.60;;;;;;5032091;28;20033;-57
2021/11/03 04:42:10;;;;;;;94.43;74.28;;;332.80;2329.60;;;;;;5030653;28;20375;-58
2021/11/03 04:44:37;;;;;;;139.18;57.13;;;332.80;2329.60;;;;;;5028902;28;20471;-58
2021/11/03 04:47:04;;;;;;;74.00;40.40;;;307.90;2304.00;;;;;;5031381;28;20075;-57
2021/11/03 04:49:30;;;;;;;64.45;39.88;;;307.90;2304.00;;;;;;5030787;28;20471;-58
2021/11/03 04:51:56;;;;;;;73.57;42.33;;;307.90;2304.00;;;;;;5029097;28;20029;-57
2021/11/03 04:54:22;;;;;;;85.50;41.40;;;307.90;2304.00;;;;;;5017964;28;20104;-60
2021/11/03 04:56:49;;;;;;;112.20;41.17;;;307.90;2304.00;;;;;;5019510;28;20118;-60
2021/11/03 04:59:16;;;;;;;113.35;50.63;;;308.00;2304.00;;;;;;5020060;28;20383;-58
2021/11/03 05:01:41;;;;;;;122.53;41.47;;;307.80;2304.00;;;;;;5021482;28;20033;-59
2021/11/03 05:04:07;;;;;;;117.72;48.85;;;307.80;2304.00;;;;;;5025512;28;20052;-58
2021/11/03 05:06:35;;;;;;;184.50;80.82;;;307.90;2304.00;;;;;;5031711;28;20018;-59
2021/11/03 05:09:03;;;;;;;85.60;51.17;;;307.90;2304.00;;;;;;5031580;28;20041;-59
2021/11/03 05:11:29;;;;;;;143.80;51.67;;;307.80;2304.00;;;;;;5031572;28;20464;-57
2021/11/03 05:13:56;;;;;;;199.27;51.72;;;307.80;2304.00;;;;;;5031873;28;20036;-59
2021/11/03 05:16:25;;;;;;;126.22;41.90;;;307.60;2304.00;;;;;;5031604;28;20017;-59
2021/11/03 05:18:51;;;;;;;102.75;43.97;;;307.60;2304.00;;;;;;5031208;28;20154;-59
2021/11/03 05:21:17;;;;;;;94.05;43.20;;;307.70;2304.00;;;;;;5031213;28;20022;-58
2021/11/03 05:23:43;;;;;;;165.98;76.65;;;307.60;2304.00;;;;;;5031662;28;20033;-58
2021/11/03 05:26:12;;;;;;;146.90;40.78;;;307.60;2304.00;;;;;;5031104;28;20484;-59
2021/11/03 05:28:39;;;;;;;182.68;52.92;;;307.60;2304.00;;;;;;5031061;28;20087;-59
2021/11/03 05:31:05;;;;;;;139.38;44.25;;;307.50;2304.00;;;;;;5030968;28;20480;-58
2021/11/03 05:33:31;;;;;;;161.13;45.03;;;307.60;2304.00;;;;;;5030895;28;20048;-58
2021/11/03 05:35:57;;;;;;;343.30;68.50;;;307.60;2304.00;;;;;;5030941;28;20028;-58
2021/11/03 05:38:22;;;;;;;112.25;49.47;;;307.50;2304.00;;;;;;5031121;28;20033;-58
2021/11/03 05:40:48;;;;;;;224.25;55.58;;;307.60;2304.00;;;;;;5030901;28;20021;-59
2021/11/03 05:43:14;;;;;;;360.25;73.50;;;307.60;2304.00;;;;;;5031092;28;20026;-59
2021/11/03 05:45:40;;;;;;;151.27;51.75;;;307.30;2304.00;;;;;;5030845;28;20048;-58
2021/11/03 05:48:05;;;;;;;182.07;57.53;;;307.50;2304.00;;;;;;5031026;28;20064;-58
2021/11/03 05:50:33;;;;;;;332.65;82.70;;;307.60;2304.00;;;;;;5031001;28;20163;-59
2021/11/03 05:53:00;;;;;;;216.57;60.95;;;307.50;2304.00;;;;;;5030789;28;20060;-59
2021/11/03 05:55:26;;;;;;;236.38;64.68;;;307.70;2304.00;;;;;;5030778;28;20114;-59
2021/11/03 05:57:52;;;;;;;135.07;49.70;;;307.80;2304.00;;;;;;5062511;28;20025;-59
2021/11/03 06:00:28;;;;;;;135.30;49.10;;;307.90;2304.00;;;;;;5030345;28;20052;-58
2021/11/03 06:02:54;;;;;;;97.10;44.03;;;307.90;2304.00;;;;;;5030705;28;20049;-58
2021/11/03 06:05:20;;;;;;;124.07;45.05;;;308.00;2304.00;;;;;;5030260;28;20069;-59
2021/11/03 06:07:54;;;;;;;203.10;59.40;;;308.00;2304.00;;;;;;5030459;28;20029;-57
2021/11/03 06:10:40;;;;;;;135.45;47.95;;;308.10;2304.00;;;;;;5030412;28;20033;-59
2021/11/03 06:13:07;;;;;;;159.45;50.90;;;308.10;2304.00;;;;;;5030671;28;20040;-58
2021/11/03 06:15:33;;;;;;;115.38;45.95;;;332.80;2329.60;;;;;;5030673;28;20110;-57
2021/11/03 06:18:00;;;;;;;81.25;43.20;;;333.00;2329.60;;;;;;5030233;28;20049;-58
2021/11/03 06:20:27;;;;;;;100.93;47.13;;;332.90;2329.60;;;;;;5030364;28;20422;-58
2021/11/03 06:22:53;;;;;;;94.28;40.65;;;332.90;2329.60;;;;;;5030488;28;20105;-57
2021/11/03 06:25:20;;;;;;;84.45;38.65;;;333.00;2329.60;;;;;;5030254;28;20462;-57
2021/11/03 06:27:48;;;;;;;75.47;34.80;;;333.00;2329.60;;;;;;5020537;28;20026;-60
2021/11/03 06:30:22;;;;;;;236.13;102.00;;;333.10;2329.60;;;;;;5018284;28;20526;-59
2021/11/03 06:32:47;;;;;;;442.27;148.05;;;332.90;2329.60;;;;;;5026717;28;20029;-58
2021/11/03 06:35:13;;;;;;;349.38;130.82;;;307.80;2304.00;;;;;;5029135;28;20033;-60
2021/11/03 06:37:40;;;;;;;337.42;133.90;;;307.50;2304.00;;;;;;5028580;28;20039;-59
2021/11/03 06:40:08;;;;;;;317.25;130.10;;;307.50;2304.00;;;;;;5019225;28;20079;-58
2021/11/03 06:42:34;;;;;;;378.63;125.07;;;307.70;2304.00;;;;;;5019624;28;20025;-59
2021/11/03 06:45:03;;;;;;;191.85;109.75;;;308.00;2304.00;;;;;;5027901;28;20395;-61
2021/11/03 06:47:30;;;;;;;352.17;123.65;;;332.80;2329.60;;;;;;5027268;28;20017;-61
2021/11/03 06:49:59;;;;;;;158.25;89.07;;;332.90;2329.60;;;;;;5025885;28;20037;-59
2021/11/03 06:52:27;;;;;;;194.55;97.70;;;333.30;2329.60;;;;;;5015560;28;20034;-60
2021/11/03 06:54:53;;;;;;;174.27;72.80;;;333.30;2329.60;;;;;;5016266;28;20025;-60
2021/11/03 06:57:18;;;;;;;94.85;45.58;;;333.40;2329.60;;;;;;5016838;28;20164;-59
2021/11/03 06:59:45;;;;;;;169.52;61.72;;;333.50;2329.60;;;;;;5018814;28;20057;-59
2021/11/03 07:02:15;;;;;;;63.22;38.50;;;333.70;2329.60;;;;;;5017070;28;20033;-59
2021/11/03 07:04:41;;;;;;;66.07;40.15;;;358.60;2329.60;;;;;;5025719;28;20029;-59
2021/11/03 07:07:07;;;;;;;84.38;48.40;;;358.70;2329.60;;;;;;5027048;28;20021;-60
2021/11/03 07:09:32;;;;;;;159.75;88.07;;;359.30;2329.60;;;;;;5029459;28;20064;-59
2021/11/03 07:11:58;;;;;;;158.27;100.43;;;384.30;2329.60;;;;;;5029379;28;20017;-60
2021/11/03 07:14:24;;;;;;;146.88;90.57;;;384.70;2329.60;;;;;;5029609;28;20026;-59
2021/11/03 07:16:50;;;;;;;175.82;110.30;;;384.40;2329.60;;;;;;5029441;28;20029;-60
2021/11/03 07:19:15;;;;;;;168.52;80.22;;;384.50;2329.60;;;;;;5029138;28;20033;-59
2021/11/03 07:21:41;;;;;;;113.30;66.95;;;384.30;2329.60;;;;;;5032792;28;20379;-59
2021/11/03 07:24:07;;;;;;;140.63;85.03;;;384.10;2329.60;;;;;;5033129;28;20034;-59
2021/11/03 07:26:33;;;;;;;184.20;98.30;;;359.10;2329.60;;;;;;5033445;28;20464;-59
2021/11/03 07:28:59;;;;;;;124.13;76.90;;;358.80;2329.60;;;;;;5033227;28;20384;-59
2021/11/03 07:31:24;;;;;;;124.65;80.35;;;359.00;2329.60;;;;;;5033426;28;20056;-59
2021/11/03 07:33:50;;;;;;;382.98;97.10;;;359.20;2329.60;;;;;;5033194;28;20032;-59
2021/11/03 07:36:20;;;;;;;143.07;74.88;;;358.60;2329.60;;;;;;5033233;28;20029;-60
2021/11/03 07:38:46;;;;;;;118.22;73.18;;;359.10;2329.60;;;;;;5033510;28;20025;-59
2021/11/03 07:41:12;;;;;;;149.60;88.57;;;384.30;2329.60;;;;;;5033202;28;20465;-59
2021/11/03 07:43:40;;;;;;;212.07;116.05;;;384.10;2329.60;;;;;;5032927;28;20060;-59
2021/11/03 07:46:06;;;;;;;526.40;193.77;;;359.30;2329.60;;;;;;5033172;28;20475;-59
2021/11/03 07:48:31;;;;;;;197.15;116.90;;;384.10;2329.60;;;;;;5033032;28;20029;-59
2021/11/03 07:51:01;;;;;;;169.13;106.72;;;384.40;2329.60;;;;;;5032957;28;20025;-59
2021/11/03 07:53:27;;;;;;;107.32;66.38;;;384.60;2329.60;;;;;;5032932;28;20033;-59
2021/11/03 07:56:00;;;;;;;112.05;72.57;;;384.40;2329.60;;;;;;5032983;28;20021;-59
2021/11/03 07:58:28;;;;;;;138.93;78.05;;;410.00;2355.20;;;;;;5033144;28;20024;-59
2021/11/03 08:00:55;;;;;;;175.57;86.15;;;410.40;2355.20;;;;;;5032867;28;20050;-59
2021/11/03 08:03:21;;;;;;;185.15;108.30;;;409.60;2355.20;;;;;;5034365;28;20119;-59
2021/11/03 08:05:51;;;;;;;175.35;101.90;;;410.20;2355.20;;;;;;5034814;28;20029;-60
2021/11/03 08:08:19;;;;;;;164.02;88.10;;;410.50;2355.20;;;;;;5034380;28;20464;-60
2021/11/03 08:10:46;;;;;;;222.38;79.97;;;410.20;2355.20;;;;;;5032835;28;20491;-59
2021/11/03 08:13:22;;;;;;;105.70;66.85;;;410.30;2355.20;;;;;;5032807;28;20087;-59
2021/11/03 08:15:51;;;;;;;146.88;95.13;;;435.20;2355.20;;;;;;5032509;28;20029;-59
2021/11/03 08:18:22;;;;;;;115.82;77.35;;;436.10;2355.20;;;;;;5032500;28;20072;-59
2021/11/03 08:20:48;;;;;;;98.70;63.60;;;435.60;2355.20;;;;;;5032303;28;20030;-60
2021/11/03 08:23:14;;;;;;;103.35;63.92;;;460.80;2380.80;;;;;;5032617;28;20032;-59
2021/11/03 08:25:41;;;;;;;96.82;63.88;;;436.00;2355.20;;;;;;5032211;28;20135;-59
2021/11/03 08:28:07;;;;;;;129.75;78.43;;;461.00;2380.80;;;;;;5030671;28;20033;-59
2021/11/03 08:30:34;;;;;;;92.90;63.58;;;461.60;2380.80;;;;;;5032182;28;20033;-60
2021/11/03 08:33:06;;;;;;;77.53;55.53;;;486.40;2380.80;;;;;;5032350;28;20061;-59
2021/11/03 08:35:32;;;;;;;71.95;57.13;;;461.30;2380.80;;;;;;5032166;28;20475;-59
2021/11/03 08:38:06;;;;;;;69.10;54.40;;;461.20;2380.80;;;;;;5031912;28;20025;-59
2021/11/03 08:40:34;;;;;;;97.78;69.40;;;435.90;2355.20;;;;;;5032205;28;20021;-59
2021/11/03 08:43:03;;;;;;;84.47;64.22;;;461.20;2380.80;;;;;;5031863;28;20029;-60
2021/11/03 08:45:29;;;;;;;93.70;71.47;;;486.80;2380.80;;;;;;5031500;28;20087;-59
2021/11/03 08:47:55;;;;;;;87.20;71.50;;;512.70;2380.80;;;;;;5031892;28;20021;-59
2021/11/03 08:50:26;;;;;;;89.50;68.32;;;487.30;2380.80;;;;;;5031903;28;20116;-59
2021/11/03 08:52:52;;;;;;;63.53;49.60;;;512.40;2380.80;;;;;;5031977;28;20021;-59
2021/11/03 08:55:20;;;;;;;62.08;47.00;;;512.80;2380.80;;;;;;5031629;28;20021;-60
2021/11/03 08:57:45;;;;;;;69.45;45.63;;;512.50;2380.80;;;;;;5031769;28;20021;-60
2021/11/03 09:00:23;;;;;;;61.97;50.80;;;538.10;2406.40;;;;;;5031387;28;20045;-60
2021/11/03 09:02:52;;;;;;;64.10;47.45;;;563.40;2432.00;;;;;;5031580;28;20029;-60
2021/11/03 09:05:18;;;;;;;91.70;66.57;;;588.90;2432.00;;;;;;5031306;28;20033;-60
2021/11/03 09:07:44;;;;;;;74.00;49.42;;;563.40;2432.00;;;;;;5031890;28;20071;-60
2021/11/03 09:10:13;;;;;;;71.25;53.53;;;537.80;2406.40;;;;;;5031451;28;20356;-60
2021/11/03 09:12:39;;;;;;;86.03;69.22;;;538.10;2406.40;;;;;;5031570;28;20026;-60
2021/11/03 09:15:06;;;;;;;100.80;79.97;;;538.40;2406.40;;;;;;5031443;28;20468;-59
2021/11/03 09:17:33;;;;;;;58.83;45.72;;;538.10;2406.40;;;;;;5031542;28;20026;-60
2021/11/03 09:19:59;;;;;;;48.70;35.88;;;512.90;2380.80;;;;;;5031091;28;20487;-60
2021/11/03 09:22:25;;;;;;;48.15;38.42;;;487.10;2380.80;;;;;;5031376;28;20030;-59
2021/11/03 09:24:50;;;;;;;44.28;34.70;;;486.70;2380.80;;;;;;5031038;28;20040;-59
2021/11/03 09:27:17;;;;;;;49.60;37.28;;;461.50;2380.80;;;;;;5031583;28;20021;-59
2021/11/03 09:29:45;;;;;;;62.72;38.47;;;461.10;2380.80;;;;;;5031289;28;20080;-59
2021/11/03 09:32:14;;;;;;;63.03;42.25;;;461.10;2380.80;;;;;;5031111;28;20029;-60
2021/11/03 09:34:44;;;;;;;58.22;40.30;;;460.80;2380.80;;;;;;5030604;28;20103;-59
2021/11/03 09:37:12;;;;;;;51.38;36.15;;;460.90;2380.80;;;;;;5030917;28;20025;-59
2021/11/03 09:39:38;;;;;;;43.60;32.90;;;460.80;2380.80;;;;;;5030847;28;20439;-60
2021/11/03 09:42:05;;;;;;;43.40;30.85;;;460.80;2380.80;;;;;;5030138;28;20437;-60
2021/11/03 09:44:36;;;;;;;50.28;32.35;;;460.90;2380.80;;;;;;5030328;28;20036;-59
2021/11/03 09:47:30;;;;;;;38.70;28.95;;;460.80;2380.80;;;;;;5030948;28;20028;-59
2021/11/03 09:50:16;;;;;;;60.00;43.88;;;460.80;2380.80;;;;;;5029372;28;20057;-60
2021/11/03 09:52:48;;;;;;;68.10;49.08;;;460.80;2380.80;;;;;;5031170;28;20056;-60
2021/11/03 09:55:14;;;;;;;53.20;43.22;;;436.10;2355.20;;;;;;5030876;28;20029;-60
2021/11/03 09:57:46;;;;;;;51.40;32.38;;;461.10;2380.80;;;;;;5030524;28;20040;-60
2021/11/03 10:00:27;;;;;;;45.65;32.42;;;461.20;2380.80;;;;;;5030750;28;20048;-60
2021/11/03 10:03:15;;;;;;;60.70;40.42;;;461.60;2380.80;;;;;;5030637;28;20080;-60
2021/11/03 10:06:10;;;;;;;67.43;43.85;;;486.40;2380.80;;;;;;5030416;28;20124;-60
2021/11/03 10:08:40;;;;;;;55.53;40.67;;;486.70;2380.80;;;;;;4989065;28;20033;-60
2021/11/03 10:11:15;;;;;;;29.15;25.27;;;487.20;2380.80;;;;;;4989244;28;20232;-60
2021/11/03 10:13:41;;;;;;;13.85;10.10;;;512.00;2380.80;;;;;;4988852;28;20030;-60
2021/11/03 10:16:13;;;;;;;27.42;19.88;;;512.40;2380.80;;;;;;4988905;28;20036;-60
2021/11/03 10:19:05;;;;;;;17.75;13.23;;;512.50;2380.80;;;;;;4988867;28;20039;-60
2021/11/03 10:21:31;;;;;;;20.25;14.43;;;512.60;2380.80;;;;;;4988710;28;20109;-60
2021/11/03 10:24:09;;;;;;;22.80;15.55;;;512.70;2380.80;;;;;;4988634;28;20081;-60
2021/11/03 10:26:52;;;;;;;24.25;20.60;;;512.50;2380.80;;;;;;4988959;28;20039;-59
2021/11/03 10:29:41;;;;;;;12.55;9.20;;;512.30;2380.80;;;;;;4988697;28;20558;-60
2021/11/03 10:32:09;;;;;;;13.32;7.20;;;512.20;2380.80;;;;;;4988575;28;20530;-60
2021/11/03 10:34:35;;;;;;;29.65;19.30;;;512.20;2380.80;;;;;;4988844;28;20034;-60
2021/11/03 10:37:32;;;;;;;21.67;14.95;;;512.20;2380.80;;;;;;4988839;28;20061;-60
2021/11/03 10:40:26;;;;;;;9.80;7.60;;;512.10;2380.80;;;;;;4988672;28;20037;-60
2021/11/03 10:43:01;;;;;;;17.42;9.93;;;512.10;2380.80;;;;;;4988597;28;20022;-60
2021/11/03 10:45:36;;;;;;;9.85;4.70;;;512.30;2380.80;;;;;;5016923;28;20091;-60
2021/11/03 10:48:12;;;;;;;14.55;9.80;;;512.30;2355.20;;;;;;5030051;28;20021;-60
2021/11/03 10:50:58;;;;;;;16.45;10.57;;;512.30;2329.60;;;;;;5029938;28;20087;-59
2021/11/03 10:53:34;;;;;;;13.75;9.93;;;512.10;2355.20;;;;;;5029971;28;20025;-59
2021/11/03 10:56:23;;;;;;;15.13;7.65;;;487.30;2355.20;;;;;;5032637;28;20030;-60
2021/11/03 10:59:10;;;;;;;15.27;9.23;;;487.20;2329.60;;;;;;5033825;28;20484;-60
2021/11/03 11:01:45;;;;;;;19.02;11.05;;;487.10;2355.20;;;;;;5034103;28;20260;-60
2021/11/03 11:04:42;;;;;;;20.48;9.80;;;487.10;2355.20;;;;;;5033631;28;20033;-59
2021/11/03 11:07:11;;;;;;;19.98;12.43;;;487.20;2355.20;;;;;;4992373;28;20031;-59
2021/11/03 11:09:42;;;;;;;13.13;7.70;;;512.10;2329.60;;;;;;4992222;28;20037;-60
2021/11/03 11:12:26;;;;;;;25.35;15.25;;;512.20;2278.40;;;;;;4992216;28;20034;-60
2021/11/03 11:14:56;;;;;;;34.25;22.27;;;512.20;2278.40;;;;;;4992450;28;20034;-60
2021/11/03 11:17:32;;;;;;;24.50;18.75;;;512.40;2252.80;;;;;;4992273;28;20113;-59
2021/11/03 11:20:08;;;;;;;20.83;10.85;;;512.50;2252.80;;;;;;4992001;28;20090;-59
2021/11/03 11:22:42;;;;;;;32.90;16.13;;;512.70;2227.20;;;;;;4992286;28;20105;-60
2021/11/03 11:25:17;;;;;;;29.45;18.75;;;512.90;2201.60;;;;;;4992000;28;20046;-60
2021/11/03 11:28:10;;;;;;;11.27;8.88;;;537.70;2252.80;;;;;;4992347;28;20543;-60
2021/11/03 11:30:54;;;;;;;20.13;13.50;;;537.70;2201.60;;;;;;4992079;28;20030;-60
2021/11/03 11:33:23;;;;;;;16.60;12.23;;;537.60;2227.20;;;;;;4991961;28;20062;-60
2021/11/03 11:35:59;;;;;;;18.80;10.65;;;537.60;2201.60;;;;;;4991817;28;20421;-61
2021/11/03 11:38:56;;;;;;;13.10;6.78;;;537.80;2227.20;;;;;;4991943;28;20392;-60
2021/11/03 11:41:27;;;;;;;14.77;8.20;;;537.60;2150.40;;;;;;4991983;28;20065;-60
2021/11/03 11:44:00;;;;;;;9.27;6.68;;;537.80;2252.80;;;;;;5018360;28;20044;-60
2021/11/03 11:46:30;;;;;;;13.70;8.95;;;537.80;2201.60;;;;;;5033321;28;20030;-60
2021/11/03 11:49:01;;;;;;;18.23;12.15;;;537.80;2176.00;;;;;;5032940;28;20037;-60
2021/11/03 11:51:29;;;;;;;30.27;24.92;;;537.90;2176.00;;;;;;5032896;28;20025;-61
2021/11/03 11:53:56;;;;;;;31.15;27.88;;;538.00;2150.40;;;;;;5033261;28;20071;-59
2021/11/03 11:56:36;;;;;;;29.00;24.58;;;538.10;2176.00;;;;;;5033175;28;20116;-59
2021/11/03 11:59:02;;;;;;;21.25;16.48;;;538.10;2150.40;;;;;;5032929;28;20084;-63
2021/11/03 12:01:46;;;;;;;27.42;17.35;;;538.10;2176.00;;;;;;5033084;28;20034;-60
2021/11/03 12:04:20;;;;;;;27.55;20.95;;;537.90;2150.40;;;;;;5033192;28;20051;-60
2021/11/03 12:06:52;;;;;;;25.70;16.50;;;537.80;2176.00;;;;;;5032351;28;20076;-60